KPWK

Chicago Executive Airport

Chicago/Prospect Heights/Wheeling, Illinois, USA
METAR KPWK 181952Z 03010KT 9SM OVC022 M02/M08 A3019 RMK AO2 SLP230 T10171078
Observed Flight Rules
Jan-18 @ 19:52 UTC (13 minutes ago) Marginal Visual Flight Rules
Wind Visibility Clouds
30° at 10 knots 9 miles
  • Overcast at 2,200' AGL
Temperatures Readings
Current -2°C / 28°F
Dewpoint -8°C / 18°F
Humidity 64%
Altimeter 30.19" Hg
Pressure 1023 hPa
Elevation 203
METAR KPWK 181952Z 03010KT 9SM OVC022 M02/M08 A3019 RMK AO2 SLP230 T10171078
Observed Flight Rules
Jan-18 @ 19:52 UTC
(13 minutes ago)
MVFR
Wind Visibility
30° at 10 knots 9 miles
Clouds
  • Overcast at 2,200' AGL
Temperature Dewpoint
-2°C / 28°F -8°C / 18°F
Humidity Altimeter Pressure
64% 30.19" Hg 1023 hPa